Weather at Saky Air Base

Public forecast

Using degrees Celsius for public forecast. Weather courtesy of forecast.io.

Closest aviation weather report (METAR) to Saky Air Base

Closest report is Anapa Vityazevo Airport, 159.1 nm (294.7 km) E.

2022/11/30 06:30 (retrieved 37 minutes ago)

URKA 300630Z 08007MPS CAVOK 04/01 Q1020 R04/010070 NOSIG RMK QFE761/1015

Closest aviation forecast (TAF) to Saky Air Base

Closest forecast is Anapa Vityazevo Airport, 159.1 nm (294.7 km) E.

2022/11/30 06:21 (retrieved 46 minutes ago)

TAF TAF URKA 300446Z 3006/0106 08009G18MPS 9999 SCT016 TEMPO 3006/0106 09011G20MPS